Taurus — 2CPB4 — position and weather

sailwx.info

Track history (hours):
 
Tides and Currents Weather Stations Pressure Air Temp Water Temp Dewpoint Dewpoint Depression Visibility Wind Speed Wind Dir Waves Ship Positions

Taurus

Last reported at 2017-Oct-17 12:34 UTC. Time now 2017-Oct-18 20:38 UTC.
Position N 21°51' E 114°34'.

Length 292 m; draft 10.8 m.

Type: Cargo ship. MMSI: 235074621.

Date/timePositionNaut miles runAvg speedWind from/ knotsBaromVisibWave heightAir tempDewpointWater temp
2017-Oct-17 12:34N 21°51' E 114°34'112.0
2017-Oct-17 12:30N 21°52' E 114°33'611.7
2017-Oct-17 12:01N 21°57' E 114°30'611.4
2017-Oct-17 11:31N 22°02' E 114°27'611.1
2017-Oct-17 11:00N 22°06' E 114°22'4 0.2
2017-Oct-16 16:33N 22°08' E 114°19'111.3
2017-Oct-16 16:30N 22°08' E 114°20'611.5
2017-Oct-16 16:00N 22°07' E 114°26'611.9
2017-Oct-16 15:30N 22°07' E 114°32'612.3
2017-Oct-16 15:00N 22°07' E 114°39'1212.1
2017-Oct-16 14:00N 22°07' E 114°52'611.9
2017-Oct-16 13:30N 22°07' E 114°58'  
2017-Oct-10 10:17N 36°02' E 120°14'  
Track history (hours):
 
Tides and Currents Weather Stations Pressure Air Temp Water Temp Dewpoint Dewpoint Depression Visibility Wind Speed Wind Dir Waves Ship Positions

Taurus

Last reported at 2017-Oct-17 12:34 UTC. Time now 2017-Oct-18 20:38 UTC.
Position N 21°51' E 114°34'.

Length 292 m; draft 10.8 m.

Type: Cargo ship. MMSI: 235074621.

Date/timePositionNaut miles runAvg speedWind from/ knotsBaromVisibWave heightAir tempDewpointWater temp
2017-Oct-17 12:34N 21°51' E 114°34'112.0
2017-Oct-17 12:30N 21°52' E 114°33'611.7
2017-Oct-17 12:01N 21°57' E 114°30'611.4
2017-Oct-17 11:31N 22°02' E 114°27'611.1
2017-Oct-17 11:00N 22°06' E 114°22'4 0.2
2017-Oct-16 16:33N 22°08' E 114°19'111.3
2017-Oct-16 16:30N 22°08' E 114°20'611.5
2017-Oct-16 16:00N 22°07' E 114°26'611.9
2017-Oct-16 15:30N 22°07' E 114°32'612.3
2017-Oct-16 15:00N 22°07' E 114°39'1212.1
2017-Oct-16 14:00N 22°07' E 114°52'611.9
2017-Oct-16 13:30N 22°07' E 114°58'  
2017-Oct-10 10:17N 36°02' E 120°14'  

Dump ship's entire track history